Time;durP1;ratioP1;P1;durP2;ratioP2;P2;SDS_P1;SDS_P2;PMS_P1;PMS_P2;Temp;Humidity;BMP_temperature;BMP_pressure;BME280_temperature;BME280_humidity;BME280_pressure;Samples;Min_cycle;Max_cycle;Signal;HPM_P1;HPM_P2
2022/08/25 00:01:42;;;;;;;8.23;4.88;;;22.40;89.80;;;;;;5097014;28;20047;-50
2022/08/25 00:04:10;;;;;;;7.93;4.53;;;22.40;90.00;;;;;;5100284;28;20097;-48
2022/08/25 00:06:37;;;;;;;6.80;4.40;;;22.40;90.00;;;;;;5099625;28;20327;-48
2022/08/25 00:09:04;;;;;;;6.15;3.92;;;22.30;89.90;;;;;;5095614;28;20073;-52
2022/08/25 00:11:33;;;;;;;6.20;4.00;;;22.30;90.00;;;;;;5105325;28;20050;-47
2022/08/25 00:14:01;;;;;;;10.60;4.50;;;22.30;90.00;;;;;;5079881;28;20126;-47
2022/08/25 00:16:30;;;;;;;8.70;4.40;;;22.30;90.10;;;;;;5093450;28;20123;-44
2022/08/25 00:18:58;;;;;;;8.07;4.22;;;22.20;89.90;;;;;;5095730;28;20056;-44
2022/08/25 00:21:24;;;;;;;7.05;4.60;;;22.20;90.00;;;;;;5108101;28;20052;-47
2022/08/25 00:23:51;;;;;;;5.47;4.50;;;22.10;90.00;;;;;;5096764;28;20147;-47
2022/08/25 00:26:18;;;;;;;8.93;4.35;;;22.10;90.10;;;;;;5104683;28;20079;-51
2022/08/25 00:28:45;;;;;;;7.68;3.90;;;22.10;90.30;;;;;;5084266;28;20127;-49
2022/08/25 00:31:13;;;;;;;8.10;4.78;;;22.10;89.90;;;;;;5098211;28;20148;-47
2022/08/25 00:33:41;;;;;;;10.50;4.57;;;22.00;90.00;;;;;;5101983;28;20159;-50
2022/08/25 00:36:11;;;;;;;9.07;4.53;;;22.00;90.00;;;;;;5078078;28;20097;-49
2022/08/25 00:38:37;;;;;;;9.23;4.22;;;21.90;90.10;;;;;;5096211;28;20055;-49
2022/08/25 00:41:07;;;;;;;7.22;4.45;;;22.00;90.10;;;;;;5077158;28;20138;-38
2022/08/25 00:43:44;;;;;;;7.60;4.35;;;21.80;90.00;;;;;;5105315;28;20487;-51
2022/08/25 00:46:12;;;;;;;8.48;3.95;;;21.80;90.00;;;;;;5115737;28;20101;-51
2022/08/25 00:48:39;;;;;;;5.78;4.20;;;21.80;90.00;;;;;;5115896;28;20047;-36
2022/08/25 00:51:08;;;;;;;8.52;4.38;;;21.80;90.10;;;;;;5116602;28;20408;-47
2022/08/25 00:53:35;;;;;;;7.72;4.35;;;21.70;90.10;;;;;;5114154;28;20051;-47
2022/08/25 00:56:02;;;;;;;6.80;4.10;;;21.70;90.00;;;;;;5097859;28;20043;-47
2022/08/25 00:58:29;;;;;;;5.97;4.32;;;21.70;90.00;;;;;;5115876;28;20083;-47
2022/08/25 01:00:56;;;;;;;9.35;4.57;;;21.60;90.00;;;;;;5101090;28;20055;-45
2022/08/25 01:03:23;;;;;;;10.10;4.57;;;21.60;90.00;;;;;;5100628;28;20108;-49
2022/08/25 01:05:50;;;;;;;5.05;3.58;;;21.60;90.10;;;;;;5115932;28;20091;-49
2022/08/25 01:08:19;;;;;;;7.07;3.95;;;21.50;90.00;;;;;;5097364;28;20158;-50
2022/08/25 01:10:46;;;;;;;4.75;3.40;;;21.50;90.00;;;;;;5115655;28;20126;-49
2022/08/25 01:13:16;;;;;;;11.75;4.07;;;21.50;89.60;;;;;;5108823;28;20083;-50
2022/08/25 01:15:43;;;;;;;7.25;4.38;;;21.50;89.70;;;;;;5094918;28;20071;-45
2022/08/25 01:18:10;;;;;;;10.20;4.03;;;21.50;89.60;;;;;;5077760;28;20135;-46
2022/08/25 01:20:37;;;;;;;7.18;3.88;;;21.40;89.60;;;;;;5093911;28;20075;-46
2022/08/25 01:23:06;;;;;;;6.00;3.95;;;21.40;89.60;;;;;;5080816;28;20131;-46
2022/08/25 01:25:37;;;;;;;10.10;4.03;;;21.40;89.60;;;;;;5115310;28;20047;-47
2022/08/25 01:28:04;;;;;;;8.68;3.88;;;21.30;89.50;;;;;;5114658;28;20114;-50
2022/08/25 01:30:30;;;;;;;6.35;3.75;;;21.30;89.40;;;;;;5100123;28;20466;-45
2022/08/25 01:32:57;;;;;;;4.75;3.30;;;21.30;89.50;;;;;;5096101;28;20047;-51
2022/08/25 01:35:24;;;;;;;5.20;3.45;;;21.20;89.00;;;;;;5103939;28;20150;-51
2022/08/25 01:37:51;;;;;;;4.95;3.75;;;21.20;89.00;;;;;;5114485;28;20432;-50
2022/08/25 01:40:19;;;;;;;3.90;3.10;;;21.20;89.00;;;;;;5110352;28;20376;-49
2022/08/25 01:42:52;;;;;;;6.60;3.33;;;21.20;88.90;;;;;;5106360;28;20458;-49
2022/08/25 01:45:19;;;;;;;4.88;3.58;;;21.10;88.70;;;;;;5113404;28;20385;-46
2022/08/25 01:47:46;;;;;;;6.07;3.70;;;21.10;88.80;;;;;;5090414;28;20475;-47
2022/08/25 01:50:12;;;;;;;9.30;3.40;;;21.10;88.60;;;;;;5097008;28;20511;-45
2022/08/25 01:52:46;;;;;;;5.28;3.38;;;21.10;88.40;;;;;;5114939;28;20131;-47
2022/08/25 01:55:13;;;;;;;5.72;3.40;;;21.00;88.30;;;;;;5095386;28;20068;-45
2022/08/25 01:57:41;;;;;;;12.75;3.50;;;21.00;88.20;;;;;;5076237;28;20139;-44
2022/08/25 02:00:11;;;;;;;8.60;3.13;;;20.90;88.20;;;;;;5101856;28;20139;-43
2022/08/25 02:02:38;;;;;;;11.75;3.50;;;20.90;88.10;;;;;;5093148;28;20055;-45
2022/08/25 02:05:05;;;;;;;5.10;3.17;;;20.90;88.40;;;;;;5093542;28;20054;-51
2022/08/25 02:07:32;;;;;;;8.25;3.90;;;20.90;88.30;;;;;;5092530;28;20135;-45
2022/08/25 02:09:59;;;;;;;8.25;3.95;;;20.80;88.50;;;;;;5094427;28;20071;-50
2022/08/25 02:12:26;;;;;;;8.85;3.55;;;20.80;88.40;;;;;;5094612;28;20049;-47
2022/08/25 02:14:54;;;;;;;9.55;3.33;;;20.80;88.90;;;;;;5091868;28;20416;-50
2022/08/25 02:17:21;;;;;;;5.47;3.33;;;20.80;88.10;;;;;;5095375;28;20055;-47
2022/08/25 02:19:47;;;;;;;5.25;3.28;;;20.70;88.00;;;;;;5079678;28;20051;-45
2022/08/25 02:22:16;;;;;;;4.95;3.63;;;20.70;88.00;;;;;;5096914;28;20059;-46
2022/08/25 02:24:42;;;;;;;5.15;3.42;;;20.70;88.10;;;;;;5091726;28;20511;-45
2022/08/25 02:27:09;;;;;;;6.72;3.25;;;20.60;87.90;;;;;;5088750;28;20132;-49
2022/08/25 02:29:36;;;;;;;7.70;3.40;;;20.60;87.80;;;;;;5094077;28;20048;-48
2022/08/25 02:32:04;;;;;;;5.35;3.20;;;20.60;87.90;;;;;;5099800;28;20118;-46
2022/08/25 02:34:31;;;;;;;16.90;3.50;;;20.50;87.80;;;;;;5077333;28;20055;-42
2022/08/25 02:36:58;;;;;;;8.00;2.85;;;20.50;87.90;;;;;;5077312;28;20135;-46
2022/08/25 02:39:25;;;;;;;3.90;2.80;;;20.50;87.70;;;;;;5105888;28;20471;-45
2022/08/25 02:41:51;;;;;;;4.38;3.08;;;20.50;87.70;;;;;;5101101;28;20454;-47
2022/08/25 02:44:18;;;;;;;4.47;2.78;;;20.40;87.60;;;;;;5096972;28;20040;-47
2022/08/25 02:46:45;;;;;;;5.15;3.28;;;20.40;87.40;;;;;;5086554;28;20131;-47
2022/08/25 02:49:13;;;;;;;6.50;3.10;;;20.40;87.60;;;;;;5079450;28;20105;-46
2022/08/25 02:51:39;;;;;;;8.23;3.10;;;20.40;87.50;;;;;;5091876;28;20131;-48
2022/08/25 02:54:06;;;;;;;6.32;3.03;;;20.40;87.30;;;;;;5095467;28;20067;-46
2022/08/25 02:56:33;;;;;;;5.03;2.90;;;20.40;87.50;;;;;;5107677;28;20483;-47
2022/08/25 02:59:00;;;;;;;5.25;3.40;;;20.30;87.40;;;;;;5111939;28;20492;-47
2022/08/25 03:01:27;;;;;;;7.53;3.03;;;20.30;87.50;;;;;;5093288;28;20047;-46
2022/08/25 03:03:54;;;;;;;5.20;3.17;;;20.30;87.30;;;;;;5113692;28;20048;-46
2022/08/25 03:06:23;;;;;;;9.82;3.53;;;20.30;87.20;;;;;;5113391;28;20464;-45
2022/08/25 03:08:49;;;;;;;6.40;3.42;;;20.30;87.30;;;;;;5106929;28;20056;-46
2022/08/25 03:11:16;;;;;;;5.32;3.22;;;20.20;87.20;;;;;;5075762;28;20135;-47
2022/08/25 03:13:43;;;;;;;5.38;3.20;;;20.20;87.10;;;;;;5075251;28;20506;-46
2022/08/25 03:16:10;;;;;;;5.95;3.83;;;20.20;87.10;;;;;;5104484;28;20071;-47
2022/08/25 03:18:37;;;;;;;7.95;3.20;;;20.10;87.10;;;;;;5081110;28;20104;-45
2022/08/25 03:21:03;;;;;;;4.55;2.80;;;20.10;87.00;;;;;;5113384;28;20172;-50
2022/08/25 03:23:32;;;;;;;6.63;3.55;;;20.10;87.20;;;;;;5113574;28;20052;-51
2022/08/25 03:28:43;;;;;;;10.48;3.50;;;20.10;87.10;;;;;;5093412;28;20051;-46
2022/08/25 03:31:09;;;;;;;11.85;3.47;;;20.00;87.30;;;;;;5110997;28;20051;-50
2022/08/25 03:33:37;;;;;;;5.90;3.28;;;20.00;87.20;;;;;;5109119;28;20044;-50
2022/08/25 03:36:04;;;;;;;4.63;2.95;;;20.00;87.00;;;;;;5073957;28;20044;-47
2022/08/25 03:38:32;;;;;;;5.38;3.30;;;20.00;86.90;;;;;;5073852;28;20145;-47
2022/08/25 03:40:59;;;;;;;7.60;2.75;;;20.00;86.90;;;;;;5082582;28;20094;-49
2022/08/25 03:43:25;;;;;;;10.88;3.47;;;20.00;87.00;;;;;;5074818;28;20488;-47
2022/08/25 03:45:52;;;;;;;7.65;3.60;;;19.90;87.10;;;;;;5092001;28;20127;-50
2022/08/25 03:48:19;;;;;;;7.55;3.58;;;19.90;87.30;;;;;;5074216;28;20139;-47
2022/08/25 03:50:46;;;;;;;5.10;3.13;;;19.90;87.20;;;;;;5100895;28;20086;-49
2022/08/25 03:53:12;;;;;;;12.68;3.25;;;19.90;87.20;;;;;;5095687;28;20087;-52
2022/08/25 03:55:41;;;;;;;7.70;3.45;;;19.90;87.20;;;;;;5091896;28;20127;-50
2022/08/25 03:58:07;;;;;;;4.93;3.15;;;19.80;87.10;;;;;;5092239;28;20052;-48
2022/08/25 04:00:34;;;;;;;7.18;3.10;;;19.80;87.30;;;;;;5073831;28;20137;-47
2022/08/25 04:03:01;;;;;;;5.07;2.95;;;19.80;87.30;;;;;;5079210;28;20044;-46
2022/08/25 04:05:28;;;;;;;6.13;3.28;;;19.80;87.20;;;;;;5091296;28;20052;-48
2022/08/25 04:07:55;;;;;;;3.97;2.78;;;19.70;87.10;;;;;;5092753;28;20048;-50
2022/08/25 04:10:22;;;;;;;6.00;2.78;;;19.70;87.20;;;;;;5102388;28;20048;-51
2022/08/25 04:12:50;;;;;;;5.05;2.95;;;19.80;87.30;;;;;;5076362;28;20475;-52
2022/08/25 04:15:17;;;;;;;5.30;2.97;;;19.70;87.20;;;;;;5091629;28;20475;-52
2022/08/25 04:17:44;;;;;;;4.82;3.25;;;19.70;87.20;;;;;;5092033;28;20101;-52
2022/08/25 04:20:11;;;;;;;8.25;2.90;;;19.70;87.30;;;;;;5097334;28;20085;-49
2022/08/25 04:22:38;;;;;;;5.20;3.08;;;19.70;87.50;;;;;;5075359;28;20139;-49
2022/08/25 04:25:06;;;;;;;4.35;2.88;;;19.60;87.50;;;;;;5095028;28;20436;-47
2022/08/25 04:27:33;;;;;;;9.80;3.35;;;19.60;87.50;;;;;;5093200;28;20496;-50
2022/08/25 04:30:01;;;;;;;4.20;2.80;;;19.60;87.70;;;;;;5097469;28;20086;-49
2022/08/25 04:32:28;;;;;;;7.00;2.90;;;19.60;87.50;;;;;;5073491;28;20104;-50
2022/08/25 04:34:54;;;;;;;3.67;2.65;;;19.60;87.60;;;;;;5091340;28;20052;-48
2022/08/25 04:37:21;;;;;;;7.40;3.45;;;19.50;87.50;;;;;;5092784;28;20067;-48
2022/08/25 04:39:48;;;;;;;6.15;3.67;;;19.50;87.70;;;;;;5087794;28;20052;-49
2022/08/25 04:42:15;;;;;;;9.38;3.72;;;19.50;87.80;;;;;;5102342;28;20071;-50
2022/08/25 04:44:42;;;;;;;5.20;3.25;;;19.40;88.10;;;;;;5096641;28;20549;-49
2022/08/25 04:47:11;;;;;;;8.45;3.47;;;19.40;88.10;;;;;;5097853;28;20091;-50
2022/08/25 04:49:37;;;;;;;11.00;3.50;;;19.40;88.30;;;;;;5105056;28;20098;-50
2022/08/25 04:52:04;;;;;;;5.78;3.22;;;19.40;88.50;;;;;;5077665;28;20080;-50
2022/08/25 04:54:31;;;;;;;8.73;3.17;;;19.40;88.70;;;;;;5096127;28;20464;-48
2022/08/25 04:56:58;;;;;;;8.20;3.17;;;19.40;88.50;;;;;;5099453;28;20130;-48
2022/08/25 04:59:25;;;;;;;8.75;3.10;;;19.40;88.60;;;;;;5078401;28;20051;-48
2022/08/25 05:01:52;;;;;;;6.28;3.17;;;19.30;88.90;;;;;;5095107;28;20054;-50
2022/08/25 05:04:20;;;;;;;9.85;3.60;;;19.30;88.80;;;;;;5095728;28;20119;-51
2022/08/25 05:06:47;;;;;;;7.70;3.60;;;19.30;89.30;;;;;;5102492;28;20488;-47
2022/08/25 05:09:14;;;;;;;7.07;3.22;;;19.30;89.40;;;;;;5083204;28;20134;-50
2022/08/25 05:11:41;;;;;;;8.63;3.65;;;19.30;89.10;;;;;;5092409;28;20048;-49
2022/08/25 05:14:10;;;;;;;8.80;3.60;;;19.30;89.60;;;;;;5092504;28;20123;-50
2022/08/25 05:16:38;;;;;;;10.93;4.22;;;19.30;89.60;;;;;;5079639;28;20078;-52
2022/08/25 05:19:04;;;;;;;8.00;3.70;;;19.30;89.80;;;;;;5105204;28;20047;-47
2022/08/25 05:21:33;;;;;;;6.47;3.40;;;19.30;90.00;;;;;;5091971;28;20140;-45
2022/08/25 05:24:00;;;;;;;7.18;3.85;;;19.30;90.00;;;;;;5080007;28;20606;-51
2022/08/25 05:26:29;;;;;;;9.30;3.35;;;19.30;90.00;;;;;;5072228;28;20079;-50
2022/08/25 05:28:56;;;;;;;6.82;3.40;;;19.30;90.10;;;;;;5104277;28;20047;-51
2022/08/25 05:31:24;;;;;;;7.90;4.00;;;19.30;90.00;;;;;;5096639;28;20060;-46
2022/08/25 05:33:50;;;;;;;10.82;4.30;;;19.40;90.20;;;;;;5095710;28;20082;-50
2022/08/25 05:36:18;;;;;;;6.50;3.25;;;19.40;90.20;;;;;;5095995;28;20528;-51
2022/08/25 05:38:46;;;;;;;5.88;3.75;;;19.40;90.20;;;;;;5101546;28;20395;-51
2022/08/25 05:41:16;;;;;;;8.65;3.85;;;19.40;90.30;;;;;;5100006;28;20399;-44
2022/08/25 05:43:43;;;;;;;10.85;3.58;;;19.40;90.40;;;;;;5072705;28;20518;-50
2022/08/25 05:46:10;;;;;;;8.98;4.22;;;19.40;90.40;;;;;;5083177;28;20544;-51
2022/08/25 05:48:37;;;;;;;10.85;4.20;;;19.50;90.50;;;;;;5079392;28;20080;-49
2022/08/25 05:51:06;;;;;;;12.93;3.95;;;19.50;90.40;;;;;;5093958;28;20130;-48
2022/08/25 05:53:33;;;;;;;4.70;3.80;;;19.50;90.50;;;;;;5079846;28;20050;-46
2022/08/25 05:56:01;;;;;;;8.80;3.95;;;19.60;90.60;;;;;;5097592;28;20137;-47
2022/08/25 05:58:28;;;;;;;9.10;4.00;;;19.60;90.60;;;;;;5099337;28;20143;-50
2022/08/25 06:00:55;;;;;;;5.72;3.85;;;19.70;90.70;;;;;;5080502;28;20075;-48
2022/08/25 06:03:21;;;;;;;8.10;3.80;;;19.70;90.70;;;;;;5101632;28;20491;-50
2022/08/25 06:05:48;;;;;;;6.70;3.53;;;19.90;90.80;;;;;;5110949;28;20077;-48
2022/08/25 06:08:15;;;;;;;8.48;3.90;;;19.90;90.90;;;;;;5095732;28;20116;-46
2022/08/25 06:10:41;;;;;;;9.02;4.30;;;20.00;90.90;;;;;;5096505;28;20048;-48
2022/08/25 06:13:09;;;;;;;11.90;4.22;;;20.00;90.80;;;;;;5091856;28;20127;-46
2022/08/25 06:15:37;;;;;;;9.07;4.13;;;20.20;90.70;;;;;;5094275;28;20091;-49
2022/08/25 06:18:04;;;;;;;6.32;4.15;;;20.30;90.70;;;;;;5080167;28;20097;-50
2022/08/25 06:20:31;;;;;;;7.22;3.72;;;20.40;90.60;;;;;;5109196;28;20051;-50
2022/08/25 06:22:58;;;;;;;7.32;3.80;;;20.50;90.60;;;;;;5098006;28;20345;-50
2022/08/25 06:25:26;;;;;;;7.22;3.95;;;20.60;90.60;;;;;;5082125;28;20441;-47
2022/08/25 06:27:53;;;;;;;9.35;4.20;;;20.70;90.40;;;;;;5098218;28;20055;-51
2022/08/25 06:30:22;;;;;;;9.48;3.67;;;20.70;90.30;;;;;;5083975;28;20372;-51
2022/08/25 06:32:49;;;;;;;8.63;3.90;;;20.80;90.30;;;;;;5092735;28;20467;-49
2022/08/25 06:35:17;;;;;;;9.15;3.80;;;20.90;90.20;;;;;;5094654;28;20519;-51
2022/08/25 06:37:44;;;;;;;10.63;4.18;;;21.10;90.10;;;;;;5094020;28;20097;-51
2022/08/25 06:40:11;;;;;;;10.63;3.88;;;21.10;90.00;;;;;;5097037;28;20083;-51
2022/08/25 06:42:38;;;;;;;7.95;3.58;;;21.20;90.10;;;;;;5094204;28;20452;-48
2022/08/25 06:45:06;;;;;;;13.07;3.80;;;21.30;90.00;;;;;;5102603;28;20498;-52
2022/08/25 06:47:34;;;;;;;13.25;4.10;;;21.40;89.70;;;;;;5077175;28;20048;-42
2022/08/25 06:50:02;;;;;;;7.15;4.03;;;21.60;89.80;;;;;;5102852;28;20059;-48
2022/08/25 06:52:29;;;;;;;8.68;4.22;;;21.70;89.40;;;;;;5075395;28;20047;-49
2022/08/25 06:54:56;;;;;;;10.73;4.13;;;21.80;89.20;;;;;;5089478;28;20500;-48
2022/08/25 06:57:23;;;;;;;15.30;4.28;;;21.90;88.70;;;;;;5073378;28;20044;-51
2022/08/25 06:59:49;;;;;;;9.07;4.13;;;22.10;89.40;;;;;;5092193;28;20101;-50
2022/08/25 07:02:16;;;;;;;10.95;4.20;;;22.20;88.30;;;;;;5071948;28;20078;-50
2022/08/25 07:04:45;;;;;;;7.78;4.28;;;22.30;88.30;;;;;;5092338;28;20128;-47
2022/08/25 07:07:11;;;;;;;8.10;3.70;;;22.40;87.90;;;;;;5091787;28;20113;-46
2022/08/25 07:09:38;;;;;;;10.85;4.32;;;22.50;87.30;;;;;;5091835;28;20101;-46
2022/08/25 07:12:06;;;;;;;8.13;4.07;;;22.60;87.30;;;;;;5070784;28;20391;-44
2022/08/25 07:14:32;;;;;;;8.13;3.70;;;22.70;86.90;;;;;;5088840;28;20122;-51
2022/08/25 07:16:59;;;;;;;8.50;4.05;;;22.80;87.10;;;;;;5078177;28;20050;-51
2022/08/25 07:19:26;;;;;;;7.72;4.15;;;23.00;86.90;;;;;;5075589;28;20062;-50
2022/08/25 07:21:54;;;;;;;12.63;4.28;;;23.10;86.20;;;;;;5098587;28;20123;-51
2022/08/25 07:24:21;;;;;;;6.88;4.15;;;23.20;86.10;;;;;;5109080;28;20079;-50
2022/08/25 07:26:48;;;;;;;10.80;4.25;;;23.40;85.60;;;;;;5095689;28;20442;-50
2022/08/25 07:29:17;;;;;;;10.60;4.03;;;23.50;85.10;;;;;;5095206;28;20544;-51
2022/08/25 07:31:44;;;;;;;9.32;3.78;;;23.60;85.20;;;;;;5072877;28;20075;-51
2022/08/25 07:36:56;;;;;;;9.32;4.00;;;23.90;84.30;;;;;;5091216;28;20051;-48
2022/08/25 07:39:23;;;;;;;11.07;4.70;;;24.10;83.80;;;;;;5092116;28;20090;-52
2022/08/25 07:41:50;;;;;;;15.10;4.20;;;24.20;83.40;;;;;;5091270;28;20407;-49
2022/08/25 07:44:17;;;;;;;7.57;3.78;;;24.30;83.20;;;;;;5079571;28;20521;-49
2022/08/25 07:46:44;;;;;;;8.10;4.30;;;24.40;83.30;;;;;;5094669;28;20555;-46
2022/08/25 07:49:10;;;;;;;8.85;3.90;;;24.60;82.90;;;;;;5078367;28;20464;-48
2022/08/25 07:51:37;;;;;;;10.73;3.90;;;24.70;82.20;;;;;;5083833;28;20415;-50
2022/08/25 07:54:06;;;;;;;11.52;3.67;;;24.90;81.30;;;;;;5073772;28;20044;-51
2022/08/25 07:56:33;;;;;;;10.75;3.90;;;25.00;80.50;;;;;;5105030;28;20051;-49
2022/08/25 07:59:00;;;;;;;10.85;3.88;;;25.10;80.70;;;;;;5080511;28;20132;-51
2022/08/25 08:01:27;;;;;;;9.15;3.42;;;25.20;80.20;;;;;;5085168;28;20126;-45
2022/08/25 08:03:53;;;;;;;10.45;3.17;;;25.40;80.30;;;;;;5087431;28;20049;-52
2022/08/25 08:06:21;;;;;;;7.18;3.75;;;25.60;80.10;;;;;;5073225;28;20087;-48
2022/08/25 08:08:49;;;;;;;10.50;3.97;;;25.70;79.80;;;;;;5092297;28;20052;-51
2022/08/25 08:11:17;;;;;;;9.05;3.75;;;25.80;79.30;;;;;;5074363;28;20051;-50
2022/08/25 08:13:44;;;;;;;6.07;3.38;;;26.00;78.70;;;;;;5095428;28;20079;-48
2022/08/25 08:16:12;;;;;;;9.02;3.78;;;26.10;79.20;;;;;;5089878;28;20123;-48
2022/08/25 08:18:38;;;;;;;11.43;3.55;;;26.30;79.40;;;;;;5097898;28;20482;-50
2022/08/25 08:21:05;;;;;;;10.77;3.92;;;26.50;79.50;;;;;;5095939;28;20046;-52
2022/08/25 08:23:32;;;;;;;10.38;3.83;;;26.60;77.80;;;;;;5090417;28;20052;-48
2022/08/25 08:25:59;;;;;;;10.25;4.32;;;26.70;77.10;;;;;;5094243;28;20123;-47
2022/08/25 08:28:27;;;;;;;14.27;3.90;;;26.70;77.20;;;;;;5085789;28;20048;-51
2022/08/25 08:30:54;;;;;;;9.48;3.92;;;26.90;77.20;;;;;;5088855;28;20135;-51
2022/08/25 08:33:22;;;;;;;5.07;3.42;;;27.00;77.40;;;;;;5094421;28;20087;-51
2022/08/25 08:35:56;;;;;;;9.68;3.47;;;27.20;77.40;;;;;;5081715;28;20127;-45
2022/08/25 08:38:22;;;;;;;6.88;3.60;;;27.30;76.40;;;;;;5099904;28;20051;-51
2022/08/25 08:42:15;;;;;;;10.75;3.47;;;27.40;75.90;;;;;;5092538;28;20577;-45
2022/08/25 08:43:42;;;;;;;7.32;3.22;;;27.50;75.90;;;;;;5088283;28;20048;-49
2022/08/25 08:46:09;;;;;;;5.63;3.28;;;27.80;75.60;;;;;;5070533;28;20071;-44
2022/08/25 08:48:44;;;;;;;9.23;3.53;;;27.90;75.50;;;;;;5097327;28;20126;-50
2022/08/25 08:51:16;;;;;;;9.13;3.50;;;28.10;75.10;;;;;;5095919;28;20149;-49
2022/08/25 08:53:44;;;;;;;8.35;3.15;;;28.20;73.90;;;;;;5076311;28;20079;-48
2022/08/25 08:56:13;;;;;;;5.55;3.10;;;28.30;72.60;;;;;;5070413;28;20135;-51
2022/08/25 08:58:43;;;;;;;9.25;3.67;;;28.40;72.90;;;;;;5075337;28;20051;-48
2022/08/25 09:01:10;;;;;;;8.15;3.38;;;28.40;71.50;;;;;;5087909;28;20138;-47
2022/08/25 09:03:39;;;;;;;11.05;3.08;;;28.40;70.30;;;;;;5084418;28;20087;-47
2022/08/25 09:06:10;;;;;;;9.07;3.20;;;28.60;70.30;;;;;;5101777;28;20060;-50
2022/08/25 09:08:37;;;;;;;11.20;3.50;;;28.60;69.90;;;;;;5079685;28;20098;-50
2022/08/25 09:11:08;;;;;;;7.65;3.40;;;28.70;69.30;;;;;;5073054;28;20513;-48
2022/08/25 09:13:38;;;;;;;;;;;28.80;69.80;;;;;;5073086;28;20094;-47
2022/08/25 09:18:56;;;;;;;8.57;3.22;;;29.10;69.40;;;;;;5090947;28;20043;-52
2022/08/25 09:21:27;;;;;;;7.88;3.10;;;29.30;68.80;;;;;;5088451;28;20114;-50
2022/08/25 09:24:13;;;;;;;7.18;3.20;;;29.40;68.20;;;;;;5078646;28;20076;-50
2022/08/25 09:26:41;;;;;;;7.03;3.03;;;29.60;68.10;;;;;;5080172;28;20083;-49
2022/08/25 09:29:10;;;;;;;7.38;2.92;;;29.60;66.30;;;;;;5095416;28;20148;-52
2022/08/25 09:31:39;;;;;;;5.30;2.92;;;29.70;66.20;;;;;;5077733;28;20466;-53
2022/08/25 09:34:07;;;;;;;5.90;2.92;;;29.80;65.10;;;;;;5093203;28;20123;-53
2022/08/25 09:36:34;;;;;;;6.68;3.20;;;29.80;64.40;;;;;;5088132;28;20475;-52
2022/08/25 09:39:01;;;;;;;9.98;2.80;;;29.90;64.10;;;;;;5112438;28;20403;-52
2022/08/25 09:41:43;;;;;;;8.88;3.20;;;29.90;63.70;;;;;;5097018;28;20052;-51
2022/08/25 09:44:17;;;;;;;6.07;2.60;;;30.10;64.60;;;;;;5080458;28;20054;-52
2022/08/25 09:46:55;;;;;;;6.95;2.88;;;30.30;64.60;;;;;;5082586;28;20052;-49
2022/08/25 09:49:22;;;;;;;6.75;2.90;;;30.50;62.90;;;;;;5105453;28;20483;-52
2022/08/25 09:51:49;;;;;;;8.73;2.67;;;30.60;61.80;;;;;;5083652;28;20122;-51
2022/08/25 09:54:18;;;;;;;5.53;2.53;;;30.70;61.00;;;;;;5065955;28;20059;-52
2022/08/25 09:56:48;;;;;;;7.60;2.40;;;30.90;61.50;;;;;;5096122;28;20044;-52
2022/08/25 09:59:20;;;;;;;5.22;2.85;;;31.00;59.70;;;;;;5075353;28;20112;-48
2022/08/25 10:01:48;;;;;;;7.13;2.53;;;31.00;59.50;;;;;;5091360;28;20094;-53
2022/08/25 10:04:17;;;;;;;5.40;2.28;;;31.10;59.50;;;;;;5098331;28;20476;-51
2022/08/25 10:06:45;;;;;;;4.63;2.63;;;31.20;59.20;;;;;;5102845;28;20166;-48
2022/08/25 10:09:14;;;;;;;5.68;2.70;;;31.20;58.00;;;;;;5084504;28;20052;-50
2022/08/25 10:11:42;;;;;;;11.20;2.85;;;31.30;58.40;;;;;;5062028;28;20044;-50
2022/08/25 10:14:27;;;;;;;6.10;2.63;;;31.40;58.30;;;;;;5093897;28;20048;-46
2022/08/25 10:17:10;;;;;;;7.07;2.95;;;31.60;58.40;;;;;;5092898;28;20576;-46
2022/08/25 10:19:38;;;;;;;11.50;2.90;;;31.70;56.90;;;;;;5090842;28;20083;-52
2022/08/25 10:22:09;;;;;;;4.88;2.72;;;31.80;56.90;;;;;;5091405;28;20075;-52
2022/08/25 10:24:36;;;;;;;6.53;2.20;;;31.80;56.40;;;;;;5091167;28;20548;-50
2022/08/25 10:27:08;;;;;;;4.93;2.50;;;31.90;55.40;;;;;;5077971;28;20051;-53
2022/08/25 10:29:51;;;;;;;13.73;3.30;;;32.00;55.80;;;;;;5095811;28;20091;-52
2022/08/25 10:32:23;;;;;;;7.18;2.90;;;32.10;55.40;;;;;;5101957;28;20135;-53
2022/08/25 10:34:54;;;;;;;7.30;2.47;;;32.20;55.50;;;;;;5081920;28;20127;-51
2022/08/25 10:37:28;;;;;;;8.07;2.40;;;32.30;54.70;;;;;;5099085;28;20060;-50
2022/08/25 10:39:58;;;;;;;7.63;3.05;;;32.30;52.70;;;;;;5070794;28;20048;-44
2022/08/25 10:42:30;;;;;;;;;;;32.30;53.30;;;;;;5089097;28;20090;-48
2022/08/25 10:48:13;;;;;;;8.48;2.67;;;32.40;54.00;;;;;;5107120;28;20047;-53
2022/08/25 10:50:43;;;;;;;7.18;2.72;;;32.40;54.10;;;;;;5078126;28;20133;-49
2022/08/25 10:53:19;;;;;;;3.03;2.40;;;32.40;52.30;;;;;;5083613;28;20067;-50
2022/08/25 10:55:51;;;;;;;8.52;3.03;;;32.40;51.80;;;;;;5069643;28;20814;-52
2022/08/25 10:58:22;;;;;;;5.03;2.30;;;32.40;52.20;;;;;;5083642;28;20049;-52
2022/08/25 11:00:55;;;;;;;5.50;2.60;;;32.40;51.30;;;;;;5073259;28;20078;-53
2022/08/25 11:03:29;;;;;;;4.45;2.72;;;32.60;52.20;;;;;;5074594;28;20060;-52
2022/08/25 11:06:00;;;;;;;4.80;2.90;;;32.60;51.60;;;;;;5072784;28;20119;-44
2022/08/25 11:08:31;;;;;;;;;;;32.70;52.10;;;;;;5090095;28;20054;-49
2022/08/25 11:11:00;;;;;;;5.57;3.03;;;32.70;52.00;;;;;;5073482;28;19995;-54
2022/08/25 11:13:30;;;;;;;7.18;2.65;;;32.70;52.10;;;;;;5070600;28;20055;-53
2022/08/25 11:16:00;;;;;;;6.88;2.47;;;32.60;51.50;;;;;;5077030;28;20044;-53
2022/08/25 11:18:30;;;;;;;7.53;2.85;;;32.60;50.90;;;;;;5091506;28;20072;-53
2022/08/25 11:21:02;;;;;;;2.80;2.60;;;32.60;51.20;;;;;;5093118;28;20399;-53
2022/08/25 11:23:33;;;;;;;7.07;3.08;;;32.70;51.40;;;;;;5073453;28;20060;-52
2022/08/25 11:26:01;;;;;;;7.05;2.63;;;32.80;51.50;;;;;;5073581;28;20048;-52
2022/08/25 11:28:32;;;;;;;6.78;2.67;;;33.00;52.30;;;;;;5093313;28;20498;-53
2022/08/25 11:30:59;;;;;;;5.43;2.70;;;33.10;50.90;;;;;;5092644;28;20079;-48
2022/08/25 11:33:26;;;;;;;4.85;2.58;;;33.10;50.40;;;;;;5072134;28;20079;-48
2022/08/25 11:35:54;;;;;;;5.55;2.55;;;33.10;50.00;;;;;;5091979;28;20087;-52
2022/08/25 11:38:30;;;;;;;4.28;2.50;;;33.10;50.10;;;;;;5097129;28;20506;-51
2022/08/25 11:41:08;;;;;;;6.32;2.67;;;33.10;50.20;;;;;;5074962;28;20094;-50
2022/08/25 11:43:47;;;;;;;6.43;2.55;;;33.20;50.30;;;;;;5081349;28;20052;-51
2022/08/25 11:46:22;;;;;;;5.78;2.50;;;33.20;49.40;;;;;;5096061;28;20075;-48
2022/08/25 11:48:56;;;;;;;8.23;2.67;;;33.30;49.60;;;;;;5094898;28;20127;-53
2022/08/25 11:51:30;;;;;;;6.68;2.60;;;33.40;49.90;;;;;;5082214;28;20105;-52
2022/08/25 11:54:12;;;;;;;4.75;2.42;;;33.50;49.40;;;;;;5112182;28;20464;-50
2022/08/25 11:56:41;;;;;;;10.65;3.05;;;33.60;49.40;;;;;;5086784;28;20138;-50
2022/08/25 11:59:09;;;;;;;7.20;2.80;;;33.60;49.30;;;;;;5115817;28;20130;-49
2022/08/25 12:02:09;;;;;;;4.97;2.50;;;33.70;49.00;;;;;;5114095;28;20048;-49
2022/08/25 12:04:39;;;;;;;5.65;2.58;;;33.70;47.80;;;;;;5077918;28;20040;-50
2022/08/25 12:07:20;;;;;;;7.00;2.20;;;33.70;47.60;;;;;;5078113;28;20078;-52
2022/08/25 12:10:15;;;;;;;6.07;2.50;;;33.70;45.90;;;;;;5106843;28;20087;-45
2022/08/25 12:12:59;;;;;;;4.50;2.50;;;33.70;47.60;;;;;;5078765;28;20063;-51
2022/08/25 12:15:27;;;;;;;3.92;2.25;;;33.80;46.80;;;;;;5096388;28;20547;-51
2022/08/25 12:18:12;;;;;;;4.93;2.10;;;33.80;46.40;;;;;;5101069;28;20414;-51
2022/08/25 12:21:10;;;;;;;4.82;2.20;;;33.90;45.90;;;;;;5116851;28;20047;-51
2022/08/25 12:23:38;;;;;;;6.55;2.47;;;33.90;44.90;;;;;;5116819;28;20047;-49
2022/08/25 12:26:08;;;;;;;6.97;2.45;;;33.70;45.50;;;;;;5116783;28;20499;-49
2022/08/25 12:28:59;;;;;;;9.10;2.50;;;33.80;46.10;;;;;;5088530;28;20087;-47
2022/08/25 12:31:47;;;;;;;4.78;2.10;;;33.90;46.50;;;;;;5091400;28;20047;-51
2022/08/25 12:34:31;;;;;;;5.00;2.60;;;33.90;45.90;;;;;;5094841;28;20052;-48
2022/08/25 12:36:58;;;;;;;3.70;2.35;;;34.00;45.10;;;;;;5105747;28;20550;-48
2022/08/25 12:39:29;;;;;;;4.13;2.10;;;34.10;45.00;;;;;;5089147;28;20093;-49
2022/08/25 12:41:59;;;;;;;4.63;2.00;;;34.10;44.40;;;;;;5076302;28;20536;-50
2022/08/25 12:44:39;;;;;;;5.47;2.13;;;34.30;45.60;;;;;;5078225;28;20076;-48
2022/08/25 12:47:07;;;;;;;6.50;2.40;;;34.40;46.00;;;;;;5094181;28;20047;-50
2022/08/25 12:49:34;;;;;;;2.97;1.95;;;34.50;44.60;;;;;;5079249;28;20136;-53
2022/08/25 12:52:04;;;;;;;5.78;2.20;;;34.50;45.30;;;;;;5075490;28;20139;-49
2022/08/25 12:54:39;;;;;;;4.78;2.10;;;34.50;45.30;;;;;;5094997;28;20080;-49
2022/08/25 12:57:22;;;;;;;4.95;2.20;;;34.50;44.40;;;;;;5075707;28;20044;-50
2022/08/25 12:59:49;;;;;;;5.13;2.00;;;34.50;44.10;;;;;;5095166;28;20087;-53
2022/08/25 13:02:39;;;;;;;8.35;2.15;;;34.60;44.80;;;;;;5077525;28;20127;-51
2022/08/25 13:05:15;;;;;;;2.20;2.00;;;34.70;44.00;;;;;;5095482;28;20052;-50
2022/08/25 13:08:03;;;;;;;3.38;2.40;;;34.80;43.60;;;;;;5079746;28;20047;-52